createdAt,value
2019-01-31T00:01:05.819Z,12.63
2019-01-31T00:04:07.003Z,11.50
2019-01-31T00:07:08.827Z,11.33
2019-01-31T00:10:29.957Z,12.43
2019-01-31T00:13:21.341Z,8.70
2019-01-31T00:15:58.757Z,12.67
2019-01-31T00:18:55.269Z,14.80
2019-01-31T00:22:05.244Z,8.40
2019-01-31T00:25:01.773Z,9.97
2019-01-31T00:28:10.736Z,11.83
2019-01-31T00:31:35.673Z,8.67
2019-01-31T00:34:56.652Z,12.37
2019-01-31T00:37:51.648Z,11.80
2019-01-31T00:40:36.223Z,10.10
2019-01-31T00:44:12.597Z,9.93
2019-01-31T00:46:46.412Z,10.83
2019-01-31T00:49:37.173Z,10.07
2019-01-31T00:53:00.362Z,12.73
2019-01-31T00:55:53.906Z,10.83
2019-01-31T00:59:09.199Z,13.53
2019-01-31T01:02:19.976Z,10.33
2019-01-31T01:05:10.168Z,12.60
2019-01-31T01:07:59.601Z,13.90
2019-01-31T01:11:12.948Z,13.50
2019-01-31T01:14:15.059Z,12.90
2019-01-31T01:17:08.030Z,11.83
2019-01-31T01:20:10.884Z,11.77
2019-01-31T01:22:51.970Z,10.23
2019-01-31T01:26:09.903Z,11.97
2019-01-31T01:28:56.107Z,9.03
2019-01-31T01:31:53.581Z,14.60
2019-01-31T01:35:23.668Z,14.17
2019-01-31T01:38:19.601Z,13.97
2019-01-31T01:40:56.207Z,11.53
2019-01-31T01:43:57.884Z,12.80
2019-01-31T01:47:09.404Z,10.10
2019-01-31T01:49:59.102Z,12.10
2019-01-31T01:52:45.824Z,13.13
2019-01-31T01:55:38.560Z,10.70
2019-01-31T01:58:58.680Z,13.07
2019-01-31T02:01:58.345Z,13.13
2019-01-31T02:05:05.496Z,10.60
2019-01-31T02:08:03.964Z,8.00
2019-01-31T02:11:10.040Z,38.70
2019-01-31T02:14:15.113Z,12.73
2019-01-31T02:17:39.220Z,14.27
2019-01-31T02:21:09.427Z,11.60
2019-01-31T02:24:02.256Z,11.10
2019-01-31T02:27:14.101Z,10.17
2019-01-31T02:30:06.897Z,12.83
2019-01-31T02:33:15.844Z,11.90
2019-01-31T02:36:10.013Z,11.20
2019-01-31T02:39:23.981Z,10.03
2019-01-31T02:42:41.862Z,7.27
2019-01-31T02:46:02.766Z,10.77
2019-01-31T02:48:58.480Z,11.70
2019-01-31T02:52:14.893Z,10.83
2019-01-31T02:55:20.152Z,7.97
2019-01-31T02:58:38.438Z,9.10
2019-01-31T03:02:05.909Z,9.60
2019-01-31T03:05:16.225Z,15.67
2019-01-31T03:08:17.128Z,10.23
2019-01-31T03:11:19.076Z,10.30
2019-01-31T03:14:21.796Z,11.93
2019-01-31T03:17:24.951Z,8.10
2019-01-31T03:20:17.086Z,9.70
2019-01-31T03:23:11.756Z,7.27
2019-01-31T03:26:29.626Z,10.60
2019-01-31T03:29:47.416Z,9.63
2019-01-31T03:32:27.134Z,10.10
2019-01-31T03:35:18.727Z,10.33
2019-01-31T03:38:39.784Z,9.83
2019-01-31T03:41:44.863Z,11.37
2019-01-31T03:45:06.156Z,8.60
2019-01-31T03:48:19.023Z,8.20
2019-01-31T03:51:32.690Z,9.87
2019-01-31T03:54:41.641Z,7.97
2019-01-31T03:57:46.847Z,7.20
2019-01-31T04:00:47.267Z,7.63
2019-01-31T04:03:38.487Z,8.57
2019-01-31T04:06:29.805Z,10.27
2019-01-31T04:08:56.900Z,8.83
2019-01-31T04:11:23.990Z,7.87
2019-01-31T04:13:51.098Z,8.87
2019-01-31T04:16:18.173Z,9.73
2019-01-31T04:18:45.288Z,12.23
2019-01-31T04:21:12.410Z,12.03
2019-01-31T04:23:39.669Z,10.10
2019-01-31T04:26:08.685Z,10.17
2019-01-31T04:28:37.192Z,11.63
2019-01-31T04:31:04.601Z,9.40
2019-01-31T04:33:31.929Z,10.13
2019-01-31T04:35:59.103Z,11.73
2019-01-31T04:38:27.244Z,9.13
2019-01-31T04:40:55.421Z,11.20
2019-01-31T04:43:22.508Z,9.43
2019-01-31T04:45:49.600Z,10.93
2019-01-31T04:48:16.906Z,13.50
2019-01-31T04:50:44.156Z,9.20
2019-01-31T04:53:11.449Z,12.00
2019-01-31T04:55:38.647Z,12.70
2019-01-31T04:58:05.814Z,13.47
2019-01-31T05:00:33.137Z,10.57
2019-01-31T05:03:00.456Z,13.23
2019-01-31T05:05:27.682Z,16.30
2019-01-31T05:07:55.070Z,9.80
2019-01-31T05:10:22.383Z,9.90
2019-01-31T05:12:49.554Z,11.33
2019-01-31T05:15:16.647Z,11.70
2019-01-31T05:17:45.612Z,14.27
2019-01-31T05:20:17.316Z,13.43
2019-01-31T05:22:44.612Z,11.70
2019-01-31T05:25:13.526Z,13.33
2019-01-31T05:27:40.650Z,11.73
2019-01-31T05:30:10.364Z,15.17
2019-01-31T05:32:37.540Z,14.03
2019-01-31T05:35:05.161Z,16.90
2019-01-31T05:37:32.259Z,13.33
2019-01-31T05:39:59.382Z,12.30
2019-01-31T05:42:26.486Z,15.13
2019-01-31T05:44:53.774Z,12.87
2019-01-31T05:47:20.896Z,12.50
2019-01-31T05:49:47.997Z,15.07
2019-01-31T05:52:15.111Z,12.70
2019-01-31T05:54:42.208Z,14.23
2019-01-31T05:57:09.414Z,10.63
2019-01-31T05:59:36.525Z,13.50
2019-01-31T06:02:03.938Z,11.80
2019-01-31T06:04:31.104Z,10.90
2019-01-31T06:06:58.434Z,14.57
2019-01-31T06:09:25.793Z,16.87
2019-01-31T06:11:53.028Z,15.50
2019-01-31T06:14:21.881Z,13.87
2019-01-31T06:16:49.765Z,13.20
2019-01-31T06:19:17.078Z,13.90
2019-01-31T06:21:45.474Z,14.30
2019-01-31T06:24:12.573Z,14.77
2019-01-31T06:26:39.843Z,13.53
2019-01-31T06:29:08.853Z,15.17
2019-01-31T06:31:36.117Z,11.70
2019-01-31T06:34:04.469Z,16.77
2019-01-31T06:36:31.715Z,16.23
2019-01-31T06:38:58.837Z,16.40
2019-01-31T06:41:27.055Z,14.77
2019-01-31T06:43:54.292Z,14.47
2019-01-31T06:46:21.412Z,18.07
2019-01-31T06:48:49.918Z,14.97
2019-01-31T06:51:17.112Z,16.33
2019-01-31T06:53:44.231Z,15.37
2019-01-31T06:56:11.462Z,18.67
2019-01-31T06:58:42.660Z,16.73
2019-01-31T07:01:13.155Z,19.40
2019-01-31T07:03:42.211Z,18.93
2019-01-31T07:06:09.668Z,17.37
2019-01-31T07:08:44.592Z,19.63
2019-01-31T07:11:11.863Z,18.20
2019-01-31T07:13:40.260Z,16.17
2019-01-31T07:16:07.537Z,18.13
2019-01-31T07:18:34.649Z,18.97
2019-01-31T07:21:03.710Z,17.53
2019-01-31T07:23:32.320Z,24.10
2019-01-31T07:26:01.254Z,17.57
2019-01-31T07:28:29.744Z,23.43
2019-01-31T07:30:56.871Z,22.47
2019-01-31T07:33:25.328Z,20.23
2019-01-31T07:35:53.517Z,17.73
2019-01-31T07:38:20.721Z,14.97
2019-01-31T07:40:47.929Z,15.87
2019-01-31T07:43:15.165Z,15.40
2019-01-31T07:45:42.562Z,18.30
2019-01-31T07:48:09.671Z,13.97
2019-01-31T07:50:36.825Z,13.50
2019-01-31T07:53:04.162Z,14.80
2019-01-31T07:55:31.561Z,18.80
2019-01-31T07:57:58.868Z,12.83
2019-01-31T08:00:25.980Z,12.77
2019-01-31T08:02:53.540Z,14.20
2019-01-31T08:05:22.083Z,12.37
2019-01-31T08:07:50.503Z,12.20
2019-01-31T08:10:23.356Z,12.33
2019-01-31T08:12:52.428Z,21.87
2019-01-31T08:15:19.733Z,12.10
2019-01-31T08:17:47.043Z,15.00
2019-01-31T08:20:16.866Z,12.00
2019-01-31T08:22:45.377Z,11.67
2019-01-31T08:25:16.209Z,16.70
2019-01-31T08:27:45.304Z,18.97
2019-01-31T08:30:15.288Z,15.13
2019-01-31T08:32:43.682Z,16.60
2019-01-31T08:35:11.881Z,13.00
2019-01-31T08:37:39.280Z,27.00
2019-01-31T08:40:09.843Z,16.17
2019-01-31T08:42:38.726Z,21.93
2019-01-31T08:45:08.273Z,18.93
2019-01-31T08:47:37.205Z,15.10
2019-01-31T08:50:07.686Z,15.57
2019-01-31T08:52:36.632Z,16.70
2019-01-31T08:55:04.512Z,17.20
2019-01-31T08:57:31.924Z,19.03
2019-01-31T08:59:59.191Z,15.40
2019-01-31T09:02:26.747Z,18.33
2019-01-31T09:04:54.121Z,22.30
2019-01-31T09:07:21.472Z,15.93
2019-01-31T09:09:48.863Z,16.40
2019-01-31T09:12:17.928Z,16.73
2019-01-31T09:14:45.154Z,19.40
2019-01-31T09:17:14.163Z,17.67
2019-01-31T09:19:41.632Z,15.67
2019-01-31T09:22:44.300Z,25.27
2019-01-31T09:25:55.295Z,13.03
2019-01-31T09:28:52.369Z,14.60
2019-01-31T09:32:03.631Z,20.53
2019-01-31T09:35:21.177Z,18.43
2019-01-31T09:38:45.454Z,17.27
2019-01-31T09:41:58.591Z,16.97
2019-01-31T09:45:12.432Z,25.77
2019-01-31T09:48:20.027Z,20.83
2019-01-31T09:51:38.177Z,21.60
2019-01-31T09:54:50.019Z,18.67
2019-01-31T09:58:01.199Z,22.23
2019-01-31T10:01:28.377Z,26.27
2019-01-31T10:04:30.184Z,25.57
2019-01-31T10:07:33.335Z,20.23
2019-01-31T10:10:23.104Z,26.33
2019-01-31T10:13:34.797Z,23.37
2019-01-31T10:16:18.855Z,25.77
2019-01-31T10:19:23.309Z,19.93
2019-01-31T10:22:39.520Z,23.43
2019-01-31T10:26:11.628Z,19.93
2019-01-31T10:29:44.742Z,17.97
2019-01-31T10:32:39.540Z,18.20
2019-01-31T10:35:34.702Z,21.60
2019-01-31T10:38:55.744Z,17.63
2019-01-31T10:42:03.777Z,18.40
2019-01-31T10:45:21.728Z,21.00
2019-01-31T10:48:31.842Z,16.73
2019-01-31T10:51:42.975Z,20.63
2019-01-31T10:54:41.689Z,21.00
2019-01-31T10:57:44.297Z,21.40
2019-01-31T11:00:44.930Z,18.97
2019-01-31T11:03:47.812Z,18.43
2019-01-31T11:06:54.845Z,19.80
2019-01-31T11:09:57.448Z,22.97
2019-01-31T11:12:37.238Z,22.67
2019-01-31T11:15:27.701Z,14.40
2019-01-31T11:18:15.982Z,17.73
2019-01-31T11:21:22.195Z,15.67
2019-01-31T11:24:24.591Z,15.30
2019-01-31T11:27:51.588Z,13.70
2019-01-31T11:30:43.199Z,16.73
2019-01-31T11:33:38.841Z,22.47
2019-01-31T11:36:42.006Z,13.27
2019-01-31T11:39:37.630Z,22.37
2019-01-31T11:42:38.174Z,14.77
2019-01-31T11:45:42.575Z,14.90
2019-01-31T11:48:40.295Z,15.00
2019-01-31T11:51:40.132Z,18.53
2019-01-31T11:54:36.578Z,15.70
2019-01-31T11:57:36.599Z,26.77
2019-01-31T12:00:04.999Z,16.83
2019-01-31T12:02:32.150Z,17.93
2019-01-31T12:04:59.243Z,18.50
2019-01-31T12:07:26.383Z,20.83
2019-01-31T12:09:53.510Z,14.27
2019-01-31T12:12:20.607Z,17.27
2019-01-31T12:14:47.712Z,18.57
2019-01-31T12:17:14.813Z,15.23
2019-01-31T12:19:42.116Z,20.77
2019-01-31T12:22:09.457Z,19.63
2019-01-31T12:24:36.573Z,29.67
2019-01-31T12:27:03.782Z,18.63
2019-01-31T12:29:30.933Z,22.17
2019-01-31T12:31:58.067Z,18.37
2019-01-31T12:34:25.183Z,19.57
2019-01-31T12:36:54.324Z,21.63
2019-01-31T12:39:21.752Z,15.93
2019-01-31T12:41:49.144Z,22.43
2019-01-31T12:44:18.275Z,20.37
2019-01-31T12:46:45.689Z,16.23
2019-01-31T12:49:12.945Z,14.13
2019-01-31T12:51:41.296Z,21.60
2019-01-31T12:54:08.697Z,16.07
2019-01-31T12:56:36.137Z,18.60
2019-01-31T12:59:03.568Z,25.87
2019-01-31T13:01:32.632Z,15.00
2019-01-31T13:04:00.004Z,17.53
2019-01-31T13:06:27.399Z,15.50
2019-01-31T13:08:54.976Z,22.50
2019-01-31T13:11:22.377Z,13.93
2019-01-31T13:13:49.811Z,16.80
2019-01-31T13:16:29.638Z,17.67
2019-01-31T13:18:56.970Z,25.00
2019-01-31T13:21:25.525Z,18.30
2019-01-31T13:23:52.929Z,14.27
2019-01-31T13:26:21.921Z,15.80
2019-01-31T13:28:49.196Z,17.77
2019-01-31T13:31:16.508Z,18.20
2019-01-31T13:33:46.627Z,14.33
2019-01-31T13:36:14.067Z,18.03
2019-01-31T13:38:41.537Z,19.23
2019-01-31T13:41:10.051Z,21.07
2019-01-31T13:43:37.507Z,15.23
2019-01-31T13:46:05.260Z,14.40
2019-01-31T13:48:32.548Z,19.27
2019-01-31T13:50:59.981Z,18.40
2019-01-31T13:53:27.335Z,12.43
2019-01-31T13:55:54.899Z,15.80
2019-01-31T13:58:22.354Z,19.17
2019-01-31T14:00:49.696Z,16.83
2019-01-31T14:03:18.280Z,15.60
2019-01-31T14:05:45.752Z,15.80
2019-01-31T14:08:13.108Z,15.50
2019-01-31T14:10:40.267Z,16.60
2019-01-31T14:13:07.545Z,10.67
2019-01-31T14:15:36.483Z,18.30
2019-01-31T14:18:05.191Z,13.70
2019-01-31T14:20:32.958Z,12.57
2019-01-31T14:23:00.320Z,16.10
2019-01-31T14:25:27.883Z,14.33
2019-01-31T14:27:55.443Z,14.23
2019-01-31T14:30:31.725Z,13.13
2019-01-31T14:32:59.056Z,14.10
2019-01-31T14:35:26.211Z,18.03
2019-01-31T14:37:54.737Z,13.60
2019-01-31T14:40:22.467Z,17.47
2019-01-31T14:42:49.876Z,18.60
2019-01-31T14:45:17.479Z,17.30
2019-01-31T14:47:45.785Z,15.30
2019-01-31T14:50:17.441Z,13.13
2019-01-31T14:52:44.985Z,13.27
2019-01-31T14:55:13.716Z,19.53
2019-01-31T14:57:41.138Z,10.67
2019-01-31T15:00:12.813Z,15.50
2019-01-31T15:02:41.639Z,14.87
2019-01-31T15:05:11.945Z,15.83
2019-01-31T15:07:40.498Z,14.80
2019-01-31T15:10:10.926Z,13.33
2019-01-31T15:12:38.352Z,15.63
2019-01-31T15:15:06.615Z,15.20
2019-01-31T15:17:34.841Z,12.13
2019-01-31T15:20:03.147Z,11.73
2019-01-31T15:22:32.296Z,11.97
2019-01-31T15:24:59.608Z,13.37
2019-01-31T15:27:27.001Z,11.93
2019-01-31T15:29:54.525Z,13.50
2019-01-31T15:32:23.598Z,12.27
2019-01-31T15:34:51.004Z,10.73
2019-01-31T15:37:19.492Z,16.67
2019-01-31T15:39:48.119Z,12.10
2019-01-31T15:42:15.369Z,9.80
2019-01-31T15:47:13.735Z,11.53
2019-01-31T15:49:40.840Z,10.23
2019-01-31T15:52:07.973Z,12.53
2019-01-31T15:54:42.513Z,11.50
2019-01-31T15:57:55.404Z,10.87
2019-01-31T16:00:44.270Z,11.77
2019-01-31T16:03:19.539Z,11.20
2019-01-31T16:05:47.046Z,10.77
2019-01-31T16:08:14.682Z,14.30
2019-01-31T16:10:42.046Z,9.77
2019-01-31T16:13:09.239Z,8.93
2019-01-31T16:15:36.570Z,13.10
2019-01-31T16:18:05.025Z,10.80
2019-01-31T16:20:32.171Z,9.27
2019-01-31T16:22:59.288Z,10.30
2019-01-31T16:25:26.396Z,11.57
2019-01-31T16:27:53.503Z,10.97
2019-01-31T16:30:21.124Z,13.67
2019-01-31T16:32:48.339Z,15.03
2019-01-31T16:35:15.480Z,11.60
2019-01-31T16:37:42.783Z,10.07
2019-01-31T16:40:11.715Z,10.33
2019-01-31T16:42:38.951Z,13.37
2019-01-31T16:45:08.176Z,16.50
2019-01-31T16:47:35.302Z,17.53
2019-01-31T16:50:03.497Z,10.50
2019-01-31T16:52:30.602Z,10.20
2019-01-31T16:54:57.716Z,10.30
2019-01-31T16:57:24.858Z,9.47
2019-01-31T16:59:51.976Z,8.63
2019-01-31T17:02:19.130Z,6.73
2019-01-31T17:04:46.278Z,9.00
2019-01-31T17:07:13.699Z,6.97
2019-01-31T17:09:40.797Z,7.70
2019-01-31T17:12:07.911Z,7.13
2019-01-31T17:14:35.031Z,6.70
2019-01-31T17:17:02.534Z,7.27
2019-01-31T17:19:29.645Z,6.17
2019-01-31T17:21:56.835Z,7.80
2019-01-31T17:24:23.933Z,7.97
2019-01-31T17:26:51.351Z,7.00
2019-01-31T17:29:18.766Z,7.53
2019-01-31T17:31:47.679Z,6.70
2019-01-31T17:34:15.827Z,7.97
2019-01-31T17:36:45.962Z,7.03
2019-01-31T17:39:13.073Z,6.40
2019-01-31T17:41:41.506Z,8.70
2019-01-31T17:44:09.036Z,8.00
2019-01-31T17:46:36.399Z,7.07
2019-01-31T17:49:05.187Z,12.17
2019-01-31T17:51:32.893Z,7.67
2019-01-31T17:54:01.648Z,7.73
2019-01-31T17:56:29.321Z,9.03
2019-01-31T17:58:58.491Z,10.83
2019-01-31T18:01:25.602Z,5.10
2019-01-31T18:03:52.768Z,10.50
2019-01-31T18:06:21.801Z,7.43
2019-01-31T18:08:51.657Z,7.83
2019-01-31T18:11:18.836Z,8.43
2019-01-31T18:13:46.084Z,7.80
2019-01-31T18:16:34.583Z,7.60
2019-01-31T18:19:36.519Z,6.13
2019-01-31T18:22:04.141Z,6.40
2019-01-31T18:24:31.344Z,6.53
2019-01-31T18:26:58.800Z,7.90
2019-01-31T18:29:27.311Z,4.77
2019-01-31T18:31:54.732Z,6.10
2019-01-31T18:34:22.201Z,5.57
2019-01-31T18:36:49.681Z,5.53
2019-01-31T18:39:16.820Z,7.67
2019-01-31T18:41:45.813Z,5.07
2019-01-31T18:44:13.138Z,7.97
2019-01-31T18:46:40.517Z,4.67
2019-01-31T18:49:07.844Z,9.33
2019-01-31T18:51:35.163Z,7.30
2019-01-31T18:54:03.711Z,11.10
2019-01-31T18:56:31.330Z,7.57
2019-01-31T18:58:58.614Z,5.87
2019-01-31T19:01:28.998Z,5.87
2019-01-31T19:03:56.639Z,6.63
2019-01-31T19:06:27.020Z,4.90
2019-01-31T19:08:54.781Z,5.27
2019-01-31T19:11:22.177Z,6.57
2019-01-31T19:13:51.298Z,6.83
2019-01-31T19:16:18.717Z,5.37
2019-01-31T19:18:47.199Z,12.03
2019-01-31T19:21:14.294Z,6.67
2019-01-31T19:23:41.425Z,7.47
2019-01-31T19:26:08.834Z,5.63
2019-01-31T19:28:36.215Z,6.43
2019-01-31T19:31:04.674Z,5.87
2019-01-31T19:33:31.927Z,6.20
2019-01-31T19:35:59.509Z,6.20
2019-01-31T19:38:26.755Z,5.80
2019-01-31T19:40:54.292Z,4.83
2019-01-31T19:43:21.684Z,5.20
2019-01-31T19:45:49.956Z,8.07
2019-01-31T19:48:17.519Z,6.30
2019-01-31T19:50:44.729Z,4.77
2019-01-31T19:53:12.269Z,4.40
2019-01-31T19:55:39.587Z,5.37
2019-01-31T19:58:07.050Z,5.80
2019-01-31T20:00:34.621Z,5.67
2019-01-31T20:03:04.139Z,4.50
2019-01-31T20:05:31.443Z,6.53
2019-01-31T20:08:00.664Z,5.80
2019-01-31T20:10:29.855Z,10.13
2019-01-31T20:12:57.400Z,6.43
2019-01-31T20:15:25.252Z,4.80
2019-01-31T20:17:52.727Z,6.27
2019-01-31T20:20:23.237Z,7.60
2019-01-31T20:22:52.712Z,6.30
2019-01-31T20:25:21.338Z,8.77
2019-01-31T20:27:48.703Z,8.20
2019-01-31T20:30:18.393Z,7.03
2019-01-31T20:32:45.859Z,4.37
2019-01-31T20:35:15.301Z,6.13
2019-01-31T20:37:42.852Z,5.87
2019-01-31T20:40:12.428Z,4.90
2019-01-31T20:42:39.845Z,4.93
2019-01-31T20:45:09.425Z,5.70
2019-01-31T20:47:38.008Z,5.53
2019-01-31T20:50:08.409Z,3.97
2019-01-31T20:52:35.616Z,3.00
2019-01-31T20:55:03.821Z,3.53
2019-01-31T20:57:31.233Z,5.60
2019-01-31T20:59:58.423Z,5.80
2019-01-31T21:02:25.543Z,4.70
2019-01-31T21:04:54.010Z,4.93
2019-01-31T21:07:21.435Z,4.40
2019-01-31T21:09:48.655Z,8.63
2019-01-31T21:12:16.074Z,4.33
2019-01-31T21:14:45.211Z,3.30
2019-01-31T21:17:12.526Z,4.93
2019-01-31T21:19:39.806Z,3.67
2019-01-31T21:22:12.435Z,3.87
2019-01-31T21:24:40.110Z,6.07
2019-01-31T21:27:11.132Z,3.07
2019-01-31T21:29:41.321Z,3.40
2019-01-31T21:32:13.412Z,2.97
2019-01-31T21:34:40.626Z,3.50
2019-01-31T21:37:07.818Z,4.17
2019-01-31T21:39:34.937Z,2.57
2019-01-31T21:42:02.128Z,6.80
2019-01-31T21:44:32.251Z,3.50
2019-01-31T21:47:03.183Z,4.73
2019-01-31T21:49:31.667Z,3.13
2019-01-31T21:51:58.919Z,3.90
2019-01-31T21:54:26.297Z,4.97
2019-01-31T21:56:55.357Z,4.37
2019-01-31T21:59:23.766Z,2.83
2019-01-31T22:01:53.348Z,4.60
2019-01-31T22:04:24.612Z,1.73
2019-01-31T22:06:51.850Z,3.77
2019-01-31T22:09:19.115Z,5.93
2019-01-31T22:11:49.477Z,2.70
2019-01-31T22:14:18.467Z,3.83
2019-01-31T22:16:46.669Z,3.83
2019-01-31T22:19:13.929Z,4.13
2019-01-31T22:21:45.936Z,3.67
2019-01-31T22:24:13.131Z,3.53
2019-01-31T22:26:43.226Z,4.07
2019-01-31T22:29:13.342Z,5.70
2019-01-31T22:31:40.790Z,3.77
2019-01-31T22:34:10.039Z,3.13
2019-01-31T22:36:37.248Z,5.23
2019-01-31T22:39:09.547Z,2.90
2019-01-31T22:41:36.649Z,4.67
2019-01-31T22:44:04.007Z,5.23
2019-01-31T22:46:31.111Z,5.10
2019-01-31T22:49:12.973Z,4.20
2019-01-31T22:51:45.804Z,3.77
2019-01-31T22:54:15.698Z,2.73
2019-01-31T22:56:43.909Z,3.77
2019-01-31T22:59:11.002Z,3.13
2019-01-31T23:01:50.089Z,5.47
2019-01-31T23:04:27.934Z,4.67
2019-01-31T23:07:00.474Z,2.57
2019-01-31T23:09:30.643Z,3.20
2019-01-31T23:12:13.612Z,3.13
2019-01-31T23:14:40.841Z,5.77
2019-01-31T23:17:10.376Z,5.40
2019-01-31T23:19:37.641Z,3.57
2019-01-31T23:22:08.136Z,6.63
2019-01-31T23:24:40.997Z,5.00
2019-01-31T23:27:08.180Z,2.93
2019-01-31T23:29:35.479Z,6.07
2019-01-31T23:32:04.541Z,3.60
2019-01-31T23:34:36.303Z,4.00
2019-01-31T23:37:10.568Z,4.63
2019-01-31T23:39:42.261Z,4.50
2019-01-31T23:42:10.419Z,3.93
2019-01-31T23:44:42.059Z,3.50
2019-01-31T23:47:09.157Z,2.13
2019-01-31T23:49:36.304Z,5.33
2019-01-31T23:52:03.575Z,4.67
2019-01-31T23:54:30.786Z,7.47
2019-01-31T23:56:57.895Z,3.47
2019-01-31T23:59:25.020Z,4.33
